Lana Louise — WDC2702 — position and weather

sailwx.info

Track history (hours):
 
Tides and Currents Weather Stations Pressure Air Temp Water Temp Dewpoint Dewpoint Depression Visibility Wind Speed Wind Dir Waves Ship Positions

Lana Louise

Owner: Kirby Inland Marine LP, Houston, TX. More information available from US FCC via Universal Licensing System and Coast Guard Vessel Documentation Center.

Last reported at 2017-Nov-17 20:16 UTC. Time now 2017-Nov-17 20:55 UTC.
Position N 29°45' W 095°06'.

Length 17 m; draft 2.6 m.

Type: . MMSI: 366996580.

Date/timePositionNaut miles runAvg speedWind from/ knotsBaromVisibWave heightAir tempDewpointWater temp
2017-Nov-17 20:16N 29°45' W 095°06'1 3.3
2017-Nov-17 19:58N 29°46' W 095°05'8 1.1
2017-Nov-17 12:38N 29°44' W 095°14'0 0.5
2017-Nov-17 12:31N 29°44' W 095°14'3 5.3
2017-Nov-17 11:54N 29°45' W 095°10'3 5.5
2017-Nov-17 11:18N 29°44' W 095°07'3 0.3
2017-Nov-17 00:36N 29°44' W 095°03'1 4.0
2017-Nov-17 00:28N 29°44' W 095°03'2 3.2
2017-Nov-16 23:44N 29°42' W 095°01'1 2.7
2017-Nov-16 23:27N 29°42' W 095°02'1 2.2
2017-Nov-16 23:00N 29°43' W 095°03'0 0.1
2017-Nov-16 22:27N 29°43' W 095°03'0 0.0
2017-Nov-16 21:21N 29°43' W 095°03'0 0.0
2017-Nov-16 20:57N 29°43' W 095°03'0 0.0
2017-Nov-16 20:27N 29°43' W 095°03'0 0.0
2017-Nov-16 19:57N 29°43' W 095°03'0 0.0
2017-Nov-16 19:27N 29°43' W 095°03'0 0.0
2017-Nov-16 18:57N 29°43' W 095°03'0 0.0
2017-Nov-16 17:51N 29°43' W 095°03'0 0.0
2017-Nov-16 16:33N 29°43' W 095°03'0 0.0
2017-Nov-16 14:03N 29°43' W 095°03'0 0.0
2017-Nov-16 12:31N 29°43' W 095°03'0 0.0
2017-Nov-16 12:29N 29°43' W 095°03'1 2.3
2017-Nov-16 11:55N 29°42' W 095°02'2 3.0
2017-Nov-16 11:24N 29°44' W 095°02'3 4.4
2017-Nov-16 10:37N 29°46' W 095°05'1 4.6
2017-Nov-16 10:30N 29°47' W 095°05'4 0.6
2017-Nov-16 02:42N 29°44' W 095°09'2 5.6
2017-Nov-16 02:18N 29°45' W 095°11'2 5.5
2017-Nov-16 01:57N 29°43' W 095°13'1 1.5
2017-Nov-16 01:30N 29°44' W 095°14'0 0.2
2017-Nov-16 00:59N 29°44' W 095°14'2 4.2
2017-Nov-16 00:30N 29°45' W 095°12'2 4.5
2017-Nov-16 00:00N 29°44' W 095°09'3 4.9
2017-Nov-15 23:21N 29°45' W 095°06'1 0.4
2017-Nov-15 19:49N 29°44' W 095°07'2 6.8
2017-Nov-15 19:28N 29°44' W 095°09'4 6.0
2017-Nov-15 18:50N 29°44' W 095°14'0 0.3
2017-Nov-15 18:30N 29°44' W 095°14'0 0.0
2017-Nov-15 18:00N 29°44' W 095°14'3 5.0
2017-Nov-15 17:19N 29°45' W 095°10'2 5.8
2017-Nov-15 17:00N 29°44' W 095°08'3 1.2
2017-Nov-15 14:49N 29°45' W 095°05'0 0.0
2017-Nov-14 22:05N 29°45' W 095°06'0 2.8
2017-Nov-14 21:54N 29°46' W 095°05'0 0.0
2017-Nov-14 16:44N 29°46' W 095°05'0 0.1
2017-Nov-14 11:49N 29°45' W 095°06'1 4.4
2017-Nov-14 11:30N 29°46' W 095°05'1 0.6
2017-Nov-14 09:45N 29°46' W 095°05'1 4.6
2017-Nov-14 09:28N 29°45' W 095°06'2 4.4
2017-Nov-14 09:00N 29°44' W 095°09'1 1.3
2017-Nov-14 08:30N 29°44' W 095°09'0 0.0
2017-Nov-14 07:55N 29°44' W 095°09'0 0.0
2017-Nov-14 07:28N 29°44' W 095°09'0 0.0
2017-Nov-14 06:46N 29°44' W 095°09'0 0.0
2017-Nov-14 06:28N 29°44' W 095°09'0 0.0
2017-Nov-14 04:49N 29°44' W 095°09'0 0.0
2017-Nov-14 04:28N 29°44' W 095°09'0 0.0
2017-Nov-14 03:55N 29°44' W 095°09'0 0.0
2017-Nov-14 03:28N 29°44' W 095°09'0 0.0
2017-Nov-14 02:58N 29°44' W 095°09'0 0.0
2017-Nov-14 02:28N 29°44' W 095°09'0 0.0
2017-Nov-14 01:22N 29°44' W 095°09'0 0.0
2017-Nov-14 00:58N 29°44' W 095°09'0 0.0
2017-Nov-14 00:22N 29°44' W 095°09'0 0.0
2017-Nov-13 23:58N 29°44' W 095°09'0 0.0
2017-Nov-13 23:28N 29°44' W 095°09'0 0.0
2017-Nov-13 22:13N 29°44' W 095°09'0 0.0
2017-Nov-13 21:49N 29°44' W 095°09'3 0.1
2017-Nov-13 00:56N 29°46' W 095°06'1 1.4
2017-Nov-13 00:26N 29°46' W 095°05'2 3.6
2017-Nov-13 00:00N 29°45' W 095°04'3 5.3
2017-Nov-12 23:29N 29°43' W 095°01'2 4.9
2017-Nov-12 23:00N 29°42' W 094°59'3 5.8
2017-Nov-12 22:30N 29°39' W 094°58'3 6.0
2017-Nov-12 22:00N 29°36' W 094°57'3 6.0
2017-Nov-12 21:30N 29°34' W 094°55'3 6.0
2017-Nov-12 21:00N 29°31' W 094°53'1 0.0
2017-Nov-11 09:29N 29°32' W 094°54'2 4.9
2017-Nov-11 09:00N 29°34' W 094°55'3 5.3
2017-Nov-11 08:30N 29°36' W 094°57'3 5.2
2017-Nov-11 08:00N 29°38' W 094°58'3 5.3
2017-Nov-11 07:30N 29°41' W 094°59'2 4.7
2017-Nov-11 06:58N 29°43' W 095°01'2 4.2
2017-Nov-11 06:30N 29°44' W 095°03'3 4.2
2017-Nov-11 05:51N 29°45' W 095°05'1 0.0
2017-Nov-10 08:30N 29°46' W 095°05'2 4.6
2017-Nov-10 08:01N 29°44' W 095°03'2 3.6
2017-Nov-10 07:21N 29°42' W 095°01'1 2.7
2017-Nov-10 06:59N 29°42' W 095°02'1 1.9
2017-Nov-10 06:30N 29°43' W 095°03'0 0.1
2017-Nov-10 06:00N 29°43' W 095°03'0 0.0
2017-Nov-10 05:30N 29°43' W 095°03'0 0.0
2017-Nov-10 05:00N 29°43' W 095°03'0 0.0
2017-Nov-10 04:30N 29°43' W 095°03'0 0.0
2017-Nov-10 04:00N 29°43' W 095°03'0 0.1
2017-Nov-10 03:30N 29°43' W 095°03'1 1.4
2017-Nov-10 03:00N 29°42' W 095°03'1 0.0
2017-Nov-09 05:54N 29°43' W 095°03'2 4.5
2017-Nov-09 05:30N 29°42' W 095°01'2 3.9
2017-Nov-09 05:01N 29°44' W 095°03'3 5.2
2017-Nov-09 04:29N 29°46' W 095°05'1 0.3
2017-Nov-09 00:42N 29°45' W 095°06'1 1.2
2017-Nov-09 00:14N 29°46' W 095°05'2 0.9
2017-Nov-08 22:10N 29°44' W 095°04'0 1.3
2017-Nov-08 22:00N 29°45' W 095°04'2 2.2
2017-Nov-08 21:16N 29°46' W 095°05'1 2.1
2017-Nov-08 20:58N 29°46' W 095°05'1 0.5
2017-Nov-08 19:46N 29°46' W 095°05'2 4.9
2017-Nov-08 19:21N 29°44' W 095°07'2 5.2
2017-Nov-08 19:00N 29°44' W 095°09'3 5.1
2017-Nov-08 18:29N 29°44' W 095°12'1 0.1
2017-Nov-08 10:42N 29°44' W 095°13'0 0.1
2017-Nov-08 04:33N 29°44' W 095°13'0 0.0
2017-Nov-08 04:30N 29°44' W 095°13'3 0.6
2017-Nov-08 00:27N 29°45' W 095°10'1 3.2
2017-Nov-08 00:00N 29°44' W 095°09'2 2.9
2017-Nov-07 23:14N 29°45' W 095°06'1 3.2
2017-Nov-07 22:58N 29°45' W 095°06'  
Track history (hours):
 
Tides and Currents Weather Stations Pressure Air Temp Water Temp Dewpoint Dewpoint Depression Visibility Wind Speed Wind Dir Waves Ship Positions

Lana Louise

Owner: Kirby Inland Marine LP, Houston, TX. More information available from US FCC via Universal Licensing System and Coast Guard Vessel Documentation Center.

Last reported at 2017-Nov-17 20:16 UTC. Time now 2017-Nov-17 20:55 UTC.
Position N 29°45' W 095°06'.

Length 17 m; draft 2.6 m.

Type: . MMSI: 366996580.

Date/timePositionNaut miles runAvg speedWind from/ knotsBaromVisibWave heightAir tempDewpointWater temp
2017-Nov-17 20:16N 29°45' W 095°06'1 3.3
2017-Nov-17 19:58N 29°46' W 095°05'8 1.1
2017-Nov-17 12:38N 29°44' W 095°14'0 0.5
2017-Nov-17 12:31N 29°44' W 095°14'3 5.3
2017-Nov-17 11:54N 29°45' W 095°10'3 5.5
2017-Nov-17 11:18N 29°44' W 095°07'3 0.3
2017-Nov-17 00:36N 29°44' W 095°03'1 4.0
2017-Nov-17 00:28N 29°44' W 095°03'2 3.2
2017-Nov-16 23:44N 29°42' W 095°01'1 2.7
2017-Nov-16 23:27N 29°42' W 095°02'1 2.2
2017-Nov-16 23:00N 29°43' W 095°03'0 0.1
2017-Nov-16 22:27N 29°43' W 095°03'0 0.0
2017-Nov-16 21:21N 29°43' W 095°03'0 0.0
2017-Nov-16 20:57N 29°43' W 095°03'0 0.0
2017-Nov-16 20:27N 29°43' W 095°03'0 0.0
2017-Nov-16 19:57N 29°43' W 095°03'0 0.0
2017-Nov-16 19:27N 29°43' W 095°03'0 0.0
2017-Nov-16 18:57N 29°43' W 095°03'0 0.0
2017-Nov-16 17:51N 29°43' W 095°03'0 0.0
2017-Nov-16 16:33N 29°43' W 095°03'0 0.0
2017-Nov-16 14:03N 29°43' W 095°03'0 0.0
2017-Nov-16 12:31N 29°43' W 095°03'0 0.0
2017-Nov-16 12:29N 29°43' W 095°03'1 2.3
2017-Nov-16 11:55N 29°42' W 095°02'2 3.0
2017-Nov-16 11:24N 29°44' W 095°02'3 4.4
2017-Nov-16 10:37N 29°46' W 095°05'1 4.6
2017-Nov-16 10:30N 29°47' W 095°05'4 0.6
2017-Nov-16 02:42N 29°44' W 095°09'2 5.6
2017-Nov-16 02:18N 29°45' W 095°11'2 5.5
2017-Nov-16 01:57N 29°43' W 095°13'1 1.5
2017-Nov-16 01:30N 29°44' W 095°14'0 0.2
2017-Nov-16 00:59N 29°44' W 095°14'2 4.2
2017-Nov-16 00:30N 29°45' W 095°12'2 4.5
2017-Nov-16 00:00N 29°44' W 095°09'3 4.9
2017-Nov-15 23:21N 29°45' W 095°06'1 0.4
2017-Nov-15 19:49N 29°44' W 095°07'2 6.8
2017-Nov-15 19:28N 29°44' W 095°09'4 6.0
2017-Nov-15 18:50N 29°44' W 095°14'0 0.3
2017-Nov-15 18:30N 29°44' W 095°14'0 0.0
2017-Nov-15 18:00N 29°44' W 095°14'3 5.0
2017-Nov-15 17:19N 29°45' W 095°10'2 5.8
2017-Nov-15 17:00N 29°44' W 095°08'3 1.2
2017-Nov-15 14:49N 29°45' W 095°05'0 0.0
2017-Nov-14 22:05N 29°45' W 095°06'0 2.8
2017-Nov-14 21:54N 29°46' W 095°05'0 0.0
2017-Nov-14 16:44N 29°46' W 095°05'0 0.1
2017-Nov-14 11:49N 29°45' W 095°06'1 4.4
2017-Nov-14 11:30N 29°46' W 095°05'1 0.6
2017-Nov-14 09:45N 29°46' W 095°05'1 4.6
2017-Nov-14 09:28N 29°45' W 095°06'2 4.4
2017-Nov-14 09:00N 29°44' W 095°09'1 1.3
2017-Nov-14 08:30N 29°44' W 095°09'0 0.0
2017-Nov-14 07:55N 29°44' W 095°09'0 0.0
2017-Nov-14 07:28N 29°44' W 095°09'0 0.0
2017-Nov-14 06:46N 29°44' W 095°09'0 0.0
2017-Nov-14 06:28N 29°44' W 095°09'0 0.0
2017-Nov-14 04:49N 29°44' W 095°09'0 0.0
2017-Nov-14 04:28N 29°44' W 095°09'0 0.0
2017-Nov-14 03:55N 29°44' W 095°09'0 0.0
2017-Nov-14 03:28N 29°44' W 095°09'0 0.0
2017-Nov-14 02:58N 29°44' W 095°09'0 0.0
2017-Nov-14 02:28N 29°44' W 095°09'0 0.0
2017-Nov-14 01:22N 29°44' W 095°09'0 0.0
2017-Nov-14 00:58N 29°44' W 095°09'0 0.0
2017-Nov-14 00:22N 29°44' W 095°09'0 0.0
2017-Nov-13 23:58N 29°44' W 095°09'0 0.0
2017-Nov-13 23:28N 29°44' W 095°09'0 0.0
2017-Nov-13 22:13N 29°44' W 095°09'0 0.0
2017-Nov-13 21:49N 29°44' W 095°09'3 0.1
2017-Nov-13 00:56N 29°46' W 095°06'1 1.4
2017-Nov-13 00:26N 29°46' W 095°05'2 3.6
2017-Nov-13 00:00N 29°45' W 095°04'3 5.3
2017-Nov-12 23:29N 29°43' W 095°01'2 4.9
2017-Nov-12 23:00N 29°42' W 094°59'3 5.8
2017-Nov-12 22:30N 29°39' W 094°58'3 6.0
2017-Nov-12 22:00N 29°36' W 094°57'3 6.0
2017-Nov-12 21:30N 29°34' W 094°55'3 6.0
2017-Nov-12 21:00N 29°31' W 094°53'1 0.0
2017-Nov-11 09:29N 29°32' W 094°54'2 4.9
2017-Nov-11 09:00N 29°34' W 094°55'3 5.3
2017-Nov-11 08:30N 29°36' W 094°57'3 5.2
2017-Nov-11 08:00N 29°38' W 094°58'3 5.3
2017-Nov-11 07:30N 29°41' W 094°59'2 4.7
2017-Nov-11 06:58N 29°43' W 095°01'2 4.2
2017-Nov-11 06:30N 29°44' W 095°03'3 4.2
2017-Nov-11 05:51N 29°45' W 095°05'1 0.0
2017-Nov-10 08:30N 29°46' W 095°05'2 4.6
2017-Nov-10 08:01N 29°44' W 095°03'2 3.6
2017-Nov-10 07:21N 29°42' W 095°01'1 2.7
2017-Nov-10 06:59N 29°42' W 095°02'1 1.9
2017-Nov-10 06:30N 29°43' W 095°03'0 0.1
2017-Nov-10 06:00N 29°43' W 095°03'0 0.0
2017-Nov-10 05:30N 29°43' W 095°03'0 0.0
2017-Nov-10 05:00N 29°43' W 095°03'0 0.0
2017-Nov-10 04:30N 29°43' W 095°03'0 0.0
2017-Nov-10 04:00N 29°43' W 095°03'0 0.1
2017-Nov-10 03:30N 29°43' W 095°03'1 1.4
2017-Nov-10 03:00N 29°42' W 095°03'1 0.0
2017-Nov-09 05:54N 29°43' W 095°03'2 4.5
2017-Nov-09 05:30N 29°42' W 095°01'2 3.9
2017-Nov-09 05:01N 29°44' W 095°03'3 5.2
2017-Nov-09 04:29N 29°46' W 095°05'1 0.3
2017-Nov-09 00:42N 29°45' W 095°06'1 1.2
2017-Nov-09 00:14N 29°46' W 095°05'2 0.9
2017-Nov-08 22:10N 29°44' W 095°04'0 1.3
2017-Nov-08 22:00N 29°45' W 095°04'2 2.2
2017-Nov-08 21:16N 29°46' W 095°05'1 2.1
2017-Nov-08 20:58N 29°46' W 095°05'1 0.5
2017-Nov-08 19:46N 29°46' W 095°05'2 4.9
2017-Nov-08 19:21N 29°44' W 095°07'2 5.2
2017-Nov-08 19:00N 29°44' W 095°09'3 5.1
2017-Nov-08 18:29N 29°44' W 095°12'1 0.1
2017-Nov-08 10:42N 29°44' W 095°13'0 0.1
2017-Nov-08 04:33N 29°44' W 095°13'0 0.0
2017-Nov-08 04:30N 29°44' W 095°13'3 0.6
2017-Nov-08 00:27N 29°45' W 095°10'1 3.2
2017-Nov-08 00:00N 29°44' W 095°09'2 2.9
2017-Nov-07 23:14N 29°45' W 095°06'1 3.2
2017-Nov-07 22:58N 29°45' W 095°06'  

Dump ship's entire track history